Terminal Aerodrome Forecast
Issued by NWS

Home | Current Version | Previous Version | Text Only | Print | Product List | Glossary On
Versions: 1 2 3 4 5 6 7 8 9 10 11 12 13 14
000
FTUS45 KABQ 272334
TAFTCC
TAF
KTCC 272334Z 2800/2824 22012G20KT P6SM VCSH SCT100 BKN140
      TEMPO 2800/2803 VRB25G35KT -SHRA BKN090
     FM280300 20010KT P6SM VCSH BKN100
     FM280600 22007KT P6SM SCT120=

USA.gov is the U.S. government's official web portal to all federal, state and local government web resources and services.